METAR Data
IDs: Format: Raw Decoded Include TAF

Data at: 0852 UTC 20 Sep 2018

PAMH 200756Z AUTO 21007KT 10SM -RA OVC008 07/07 A3014 RMK AO2 CIG 007V011 SLP959 P0001 T00720067
PAMH 200717Z AUTO 21009KT 10SM -RA OVC008 07/07 A3014 RMK AO2 P0000
PAMH 200656Z AUTO 21007KT 10SM -RA OVC010 07/07 A3014 RMK AO2 SLP961 P0001 T00720067
PAMH 200556Z AUTO 21006KT 10SM -RA BKN010 BKN016 OVC050 07/07 A3015 RMK AO2 SLP963 P0002 60002 T00720067 10083 20072 56003
PAMH 200528Z AUTO 21005KT 10SM -RA BKN013 BKN028 OVC042 08/07 A3015 RMK AO2 P0001
PAMH 200505Z AUTO 20005KT 10SM -RA SCT013 BKN017 OVC041 08/07 A3015 RMK AO2 P0001
PAMH 200456Z AUTO 21005KT 10SM -RA BKN013 OVC041 08/07 A3015 RMK AO2 SLP964 P0000 T00780067
PAMH 200452Z AUTO 21005KT 10SM -RA SCT011 BKN018 OVC041 08/07 A3015 RMK AO2 P0000
PAMH 200356Z AUTO 21004KT 10SM -RA OVC011 08/07 A3016 RMK AO2 RAB18 SLP966 P0000 T00780067
PAMH 200256Z AUTO 21006KT 10SM OVC011 08/07 A3017 RMK AO2 RAE45 SLP968 P0000 60000 T00780067 58004
PAMH 200242Z AUTO 21005KT 10SM -RA BKN011 OVC038 08/07 A3017 RMK AO2 P0000
PAMH 200205Z AUTO 22006KT 10SM -RA OVC016 08/06 A3017 RMK AO2 P0000
PAMH 200156Z AUTO 22008KT 10SM -RA BKN014 OVC019 08/06 A3017 RMK AO2 RAB03E13B32 SLP970 P0000 T00780061
PAMH 200129Z AUTO 21007KT 10SM SCT015 BKN021 OVC055 08/06 A3017 RMK AO2 RAB03E13 P0000
PAMH 200056Z AUTO 21009KT 10SM OVC013 08/06 A3018 RMK AO2 RAE55 SLP972 P0000 T00780061
PAMH 192356Z AUTO 22007KT 10SM -RA OVC015 08/06 A3019 RMK AO2 SLP975 P0000 60000 T00830061 10089 20072 56006
PAMH 192256Z AUTO 22008KT 10SM -RA OVC026 08/06 A3019 RMK AO2 SLP977 P0000 T00780056
PAMH 192156Z AUTO 22011G15KT 10SM -RA BKN024 OVC031 08/04 A3020 RMK AO2 SLP980 P0000 T00830039
PAMH 192114Z AUTO 22008KT 10SM -RA BKN026 OVC045 08/04 A3020 RMK AO2 P0000
PAMH 192056Z AUTO 23007KT 10SM -RA FEW026 OVC045 08/04 A3021 RMK AO2 SLP982 P0000 60000 T00830039 56003
PAMH 191956Z AUTO 22008KT 10SM -RA BKN047 BKN060 OVC075 08/06 A3021 RMK AO2 RAB40 SLP983 P0000 T00830061
PAMH 191944Z AUTO 22008KT 10SM -RA SCT007 BKN049 OVC075 08/06 A3021 RMK AO2 RAB40 P0000
PAMH 191925Z AUTO 22006KT 10SM OVC007 08/06 A3021 RMK AO2
PAMH 191856Z AUTO 22004KT 10SM OVC005 08/06 A3021 RMK AO2 SLP983 T00780061
PAMH 191835Z AUTO 22006KT 10SM OVC005 08/07 A3021 RMK AO2
PAMH 191756Z AUTO 21004KT 10SM OVC003 07/07 A3022 RMK AO2 SLP985 60000 T00720067 10072 20067 51001
PAMH 191706Z AUTO 24003KT 7SM OVC003 07/07 A3022 RMK AO2 CIG 002V005
PAMH 191656Z AUTO 23003KT 3SM BR BKN005 OVC050 07/07 A3022 RMK AO2 RAB30E47 SLP985 P0000 T00670067
PAMH 191649Z AUTO 00000KT 4SM BR BKN005 OVC050 07/07 A3021 RMK AO2 RAB30E47 P0000
PAMH 191637Z AUTO 23003KT 10SM -RA SCT005 BKN050 OVC065 07/07 A3022 RMK AO2 RAB30 P0000
PAMH 191556Z AUTO 00000KT 10SM FEW042 OVC060 07/06 A3021 RMK AO2 SLP984 T00720061
PAMH 191456Z AUTO 00000KT 10SM BKN031 OVC060 07/07 A3021 RMK AO2 SLP984 60000 T00720067 56000
PAMH 191356Z AUTO 00000KT 10SM BKN035 OVC044 07/07 A3021 RMK AO2 RAB13E25 SLP984 P0000 T00720067
PAMH 191256Z AUTO 00000KT 10SM OVC070 07/07 A3021 RMK AO2 SLP983 T00720067
PAMH 191156Z AUTO 00000KT 10SM FEW015 BKN033 OVC070 07/07 A3021 RMK AO2 SLP984 70011 T00720067 10078 20072 50001
PAMH 191125Z AUTO 00000KT 10SM SCT015 BKN040 OVC070 07/07 A3022 RMK AO2
PAMH 191104Z AUTO 00000KT 10SM BKN015 OVC031 07/07 A3021 RMK AO2
PAMH 191056Z AUTO 00000KT 10SM SCT015 OVC031 07/07 A3021 RMK AO2 SLP984 T00720067
PAMH 191038Z AUTO 00000KT 10SM OVC029 07/07 A3021 RMK AO2
PAMH 191030Z AUTO 00000KT 10SM SCT026 OVC031 07/07 A3021 RMK AO2
PAMH 191009Z AUTO 00000KT 10SM BKN025 OVC031 08/07 A3021 RMK AO2
PAMH 190956Z AUTO 00000KT 10SM OVC030 07/07 A3021 RMK AO2 SLP983 T00720067
PAMH 190856Z AUTO 00000KT 10SM OVC042 07/07 A3021 RMK AO2 SLP983 T00720067 401220072 50000
PAMH 190756Z AUTO 00000KT 10SM BKN034 OVC048 08/07 A3021 RMK AO2 SLP983 T00780067
PAMH 190656Z AUTO 00000KT 10SM FEW050 08/07 A3021 RMK AO2 SLP984 T00780067
PAMH 190556Z AUTO 00000KT 10SM BKN049 08/07 A3021 RMK AO2 SLP983 T00830067 10122 20083 52002
PAMH 190456Z AUTO 00000KT 10SM FEW042 OVC049 10/07 A3021 RMK AO2 SLP982 T01000072
PAMH 190356Z AUTO 00000KT 10SM OVC049 11/07 A3020 RMK AO2 SLP981 T01060067
PAMH 190256Z AUTO 00000KT 10SM FEW030 SCT036 OVC049 12/07 A3020 RMK AO2 SLP981 T01170067 56006
PAMH 190156Z AUTO VRB03KT 10SM OVC049 12/06 A3021 RMK AO2 SLP982 T01170061
PAMH 190056Z AUTO 21004KT 10SM OVC049 12/06 A3021 RMK AO2 SLP983 T01170061
PAMH 182356Z AUTO 22004KT 10SM SCT032 OVC049 12/06 A3022 RMK AO2 SLP986 60002 T01170056 10117 20078 58002
PAMH 182256Z AUTO VRB03KT 10SM SCT025 BKN040 OVC047 11/06 A3023 RMK AO2 SLP989 T01110061
PAMH 182211Z AUTO 21004KT 10SM FEW013 SCT032 SCT042 11/06 A3023 RMK AO2
PAMH 182156Z AUTO 21005KT 10SM BKN015 BKN020 11/07 A3023 RMK AO2 SLP990 T01060072
PAMH 182056Z AUTO 21004KT 10SM BKN026 OVC075 09/07 A3023 RMK AO2 SLP988 60002 T00940072 53002